Terminal Aerodrome Forecast
Issued by NWS Sterling, VA

Current Version | Previous Version | Graphics & Text | Print | Product List | Glossary On
Versions: 1 2 3 4 5 6 7 8 9 10 11 12 13 14 15 16 17 18 19 20 21 22 23 24 25 26 27 28 29 30
830
FTUS41 KLWX 231122
TAFDCA
TAF
KDCA 231122Z 2312/2412 35005KT P6SM VCSH OVC050
     FM231800 36006KT P6SM -SHRA OVC050
     FM240300 26004KT P6SM SCT070 OVC090
     FM241000 30005KT P6SM SCT050=

USA.gov is the U.S. government's official web portal to all federal, state and local government web resources and services.